Terminal Aerodrome Forecast
Issued by NWS Cleveland, OH

Home | Current Version | Previous Version | Graphics & Text | Print | Product List | Glossary On
Versions: 1 2 3 4 5 6 7 8 9 10 11 12 13 14 15
000
FTUS41 KCLE 271723
TAFYNG
TAF
KYNG 271723Z 2718/2818 VRB04KT P6SM SCT025 BKN045
      TEMPO 2718/2721 BKN025
     FM280300 VRB03KT P6SM FEW040
      TEMPO 2809/2813 3SM BR=

USA.gov is the U.S. government's official web portal to all federal, state and local government web resources and services.